Time,TemperatureF,DewpointF,PressureIn,WindDirection,WindDirectionDegrees,WindSpeedMPH,WindSpeedGustMPH,Humidity,HourlyPrecipIn,Conditions,Clouds,dailyrainin,SoftwareType,DateUTC
2013-07-23 00:00:00,69.5,68.9,29.86,SSW,202,0.0,2.0,98,0.10,,OVC,0.00,VWS V14.01,2013-07-23 04:00:00,
2013-07-23 01:00:00,67.4,66.8,29.84,WSW,248,0.0,4.0,98,0.00,,OVC,0.00,VWS V14.01,2013-07-23 05:00:00,
2013-07-23 02:00:00,66.7,65.2,29.83,SW,225,0.0,3.0,95,0.00,,OVC,0.00,VWS V14.01,2013-07-23 06:00:00,
2013-07-23 03:00:00,66.9,64.8,29.82,SW,225,0.0,4.0,93,0.00,,OVC,0.00,VWS V14.01,2013-07-23 07:00:00,
2013-07-23 04:00:00,65.9,64.1,29.83,SW,225,0.0,5.0,94,0.00,,OVC,0.00,VWS V14.01,2013-07-23 08:00:00,
2013-07-23 05:00:00,66.0,63.6,29.83,WSW,248,0.0,5.0,92,0.00,,OVC,0.00,VWS V14.01,2013-07-23 09:00:00,
2013-07-23 06:00:00,65.5,62.8,29.83,WSW,248,0.0,2.0,91,0.00,,OVC,0.00,VWS V14.01,2013-07-23 10:00:00,
2013-07-23 07:00:00,66.6,63.6,29.85,WSW,248,0.0,5.0,90,0.00,,OVC,0.00,VWS V14.01,2013-07-23 11:00:00,
2013-07-23 08:00:00,66.7,64.3,29.85,SW,225,0.0,1.0,92,0.00,,OVC,0.00,VWS V14.01,2013-07-23 12:00:00,
2013-07-23 09:00:00,66.6,65.4,29.85,SW,225,0.0,0.0,96,0.00,,OVC,0.00,VWS V14.01,2013-07-23 13:00:00,
2013-07-23 10:00:00,69.1,66.4,29.86,SW,225,0.0,2.0,91,0.00,,OVC,0.00,VWS V14.01,2013-07-23 14:00:00,
2013-07-23 11:00:00,70.8,68.4,29.88,SW,225,0.0,1.0,92,0.00,,OVC,0.00,VWS V14.01,2013-07-23 15:00:00,
2013-07-23 12:00:00,72.4,68.7,29.88,SW,225,0.0,1.0,88,0.00,,OVC,0.00,VWS V14.01,2013-07-23 16:00:00,
2013-07-23 13:00:00,77.1,72.2,29.87,SW,225,0.0,3.0,85,0.00,,OVC,0.00,VWS V14.01,2013-07-23 17:00:00,
2013-07-23 14:00:00,76.9,70.6,29.85,WSW,248,0.0,3.0,81,0.00,,OVC,0.00,VWS V14.01,2013-07-23 18:00:00,
2013-07-23 15:00:00,82.4,72.5,29.82,WSW,248,0.0,4.0,72,0.00,,OVC,0.00,VWS V14.01,2013-07-23 19:00:00,
2013-07-23 16:00:00,80.2,71.6,29.81,WSW,248,0.0,2.0,75,0.00,,OVC,0.00,VWS V14.01,2013-07-23 20:00:00,
2013-07-23 17:00:00,79.4,72.3,29.78,WSW,248,0.0,3.0,79,0.00,,OVC,0.00,VWS V14.01,2013-07-23 21:00:00,
2013-07-23 18:00:00,76.9,72.1,29.78,WSW,248,0.0,4.0,85,0.00,,OVC,0.00,VWS V14.01,2013-07-23 22:00:00,
2013-07-23 19:00:00,75.2,72.4,29.77,WSW,248,0.0,4.0,91,0.00,,OVC,0.00,VWS V14.01,2013-07-23 23:00:00,
2013-07-23 20:00:00,73.4,70.3,29.78,WSW,248,0.0,2.0,90,0.00,,OVC,0.00,VWS V14.01,2013-07-24 00:00:00,
2013-07-23 21:00:00,71.6,69.2,29.79,NE,45,0.0,4.0,92,0.00,,OVC,0.00,VWS V14.01,2013-07-24 01:00:00,
2013-07-23 22:00:00,70.8,67.1,29.80,West,270,0.0,3.0,88,0.00,,OVC,0.00,VWS V14.01,2013-07-24 02:00:00,
2013-07-23 23:00:00,72.5,67.4,29.81,WSW,248,0.0,6.0,84,0.00,,OVC,0.00,VWS V14.01,2013-07-24 03:00:00,